| time (UTC) | temp F | wind direction | speed MPH | gust MPH | rain 1hr in | rain 24hr in | rain mn in | humidity % | barometer mb |
| 20260506045007 | 60 | 98 | 2.0 | 6.0 | 0.00 | 0.06 | 0.02 | 78 | 1015.4 |
| 20260506044506 | 60 | 121 | 3.0 | 6.0 | 0.00 | 0.06 | 0.02 | 79 | 1015.4 |
| 20260506044007 | 60 | 99 | 4.0 | 9.0 | 0.00 | 0.06 | 0.02 | 78 | 1015.4 |
| 20260506043008 | 60 | 92 | 4.0 | 9.0 | 0.00 | 0.06 | 0.02 | 78 | 1015.2 |
| 20260506042507 | 60 | 113 | 3.0 | 7.0 | 0.00 | 0.06 | 0.02 | 78 | 1015.1 |
| 20260506042007 | 60 | 113 | 3.0 | 6.0 | 0.00 | 0.06 | 0.02 | 78 | 1015.0 |
| 20260506041507 | 60 | 122 | 3.0 | 8.0 | 0.00 | 0.06 | 0.02 | 78 | 1014.9 |
| 20260506041004 | 60 | 109 | 3.0 | 8.0 | 0.00 | 0.06 | 0.02 | 78 | 1014.8 |
| 20260506040502 | 60 | 92 | 3.0 | 8.0 | 0.00 | 0.06 | 0.02 | 78 | 1014.6 |
| 20260506035504 | 60 | 126 | 3.0 | 5.0 | 0.00 | 0.07 | 0.02 | 78 | 1014.5 |
| 20260506035006 | 60 | 86 | 3.0 | 7.0 | 0.00 | 0.07 | 0.02 | 78 | 1014.3 |
| 20260506034505 | 60 | 116 | 4.0 | 8.0 | 0.00 | 0.07 | 0.02 | 78 | 1014.2 |
| 20260506034008 | 60 | 88 | 3.0 | 8.0 | 0.00 | 0.07 | 0.02 | 78 | 1014.2 |
| 20260506033506 | 60 | 109 | 3.0 | 8.0 | 0.00 | 0.07 | 0.02 | 78 | 1014.0 |
| 20260506033007 | 60 | 84 | 3.0 | 8.0 | 0.00 | 0.07 | 0.02 | 77 | 1013.8 |
| 20260506031507 | 60 | 83 | 3.0 | 7.0 | 0.00 | 0.07 | 0.02 | 78 | 1013.7 |
| 20260506025505 | 60 | 79 | 4.0 | 8.0 | 0.00 | 0.07 | 0.02 | 77 | 1013.3 |
| 20260506025007 | 60 | 67 | 4.0 | 8.0 | 0.00 | 0.07 | 0.02 | 78 | 1013.3 |
| 20260506024507 | 60 | 105 | 4.0 | 8.0 | 0.00 | 0.07 | 0.02 | 77 | 1013.1 |
| 20260506024006 | 60 | 91 | 3.0 | 6.0 | 0.00 | 0.07 | 0.02 | 78 | 1013.1 |
| 20260506023503 | 60 | 76 | 3.0 | 7.0 | 0.00 | 0.07 | 0.02 | 78 | 1013.0 |
| 20260506023007 | 60 | 128 | 2.0 | 5.0 | 0.00 | 0.07 | 0.02 | 78 | 1012.8 |
| 20260506022505 | 60 | 132 | 3.0 | 7.0 | 0.00 | 0.07 | 0.02 | 78 | 1012.9 |
| 20260506022007 | 60 | 106 | 4.0 | 7.0 | 0.00 | 0.07 | 0.02 | 78 | 1012.8 |
| 20260506021506 | 60 | 122 | 2.0 | 7.0 | 0.00 | 0.07 | 0.02 | 79 | 1012.7 |
| 20260506021006 | 60 | 92 | 1.0 | 4.0 | 0.00 | 0.07 | 0.02 | 79 | 1012.6 |
| 20260506020502 | 60 | 126 | 2.0 | 6.0 | 0.00 | 0.07 | 0.02 | 79 | 1012.5 |
| 20260506015504 | 60 | 109 | 2.0 | 7.0 | 0.00 | 0.08 | 0.02 | 78 | 1012.5 |
| 20260506015007 | 60 | 75 | 3.0 | 7.0 | 0.00 | 0.08 | 0.02 | 78 | 1012.4 |
| 20260506014504 | 60 | 84 | 4.0 | 9.0 | 0.00 | 0.08 | 0.02 | 78 | 1012.4 |
| 20260506014006 | 60 | 94 | 4.0 | 8.0 | 0.00 | 0.08 | 0.02 | 79 | 1012.4 |
| 20260506013504 | 60 | 84 | 4.0 | 9.0 | 0.00 | 0.08 | 0.02 | 78 | 1012.3 |
| 20260506012502 | 60 | 158 | 3.0 | 8.0 | 0.00 | 0.08 | 0.02 | 79 | 1012.3 |
| 20260506012003 | 60 | 137 | 4.0 | 8.0 | 0.00 | 0.08 | 0.02 | 78 | 1012.2 |
| 20260506011006 | 61 | 130 | 2.0 | 7.0 | 0.00 | 0.08 | 0.02 | 79 | 1012.1 |
| 20260506010504 | 61 | 53 | 3.0 | 8.0 | 0.00 | 0.08 | 0.02 | 79 | 1012.0 |
| 20260506010009 | 61 | 140 | 5.0 | 8.0 | 0.00 | 0.08 | 0.02 | 79 | 1012.0 |
| 20260506005505 | 61 | 161 | 6.0 | 10.0 | 0.00 | 0.08 | 0.02 | 79 | 1012.0 |
| 20260506005003 | 61 | 174 | 6.0 | 10.0 | 0.00 | 0.08 | 0.02 | 78 | 1012.0 |
| 20260506004505 | 61 | 155 | 5.0 | 9.0 | 0.00 | 0.08 | 0.02 | 78 | 1011.9 |
| 20260506004002 | 61 | 150 | 5.0 | 9.0 | 0.00 | 0.08 | 0.02 | 77 | 1011.9 |
| 20260506003502 | 61 | 171 | 5.0 | 8.0 | 0.00 | 0.08 | 0.02 | 79 | 1011.9 |
| 20260506003007 | 61 | 159 | 4.0 | 7.0 | 0.00 | 0.08 | 0.02 | 78 | 1011.9 |
| 20260506002504 | 61 | 155 | 4.0 | 8.0 | 0.00 | 0.08 | 0.02 | 77 | 1011.8 |
| 20260506002006 | 61 | 153 | 4.0 | 8.0 | 0.00 | 0.08 | 0.02 | 77 | 1011.8 |
| 20260506001502 | 61 | 153 | 3.0 | 7.0 | 0.00 | 0.08 | 0.02 | 77 | 1011.8 |
| 20260506001003 | 61 | 181 | 3.0 | 7.0 | 0.00 | 0.08 | 0.02 | 77 | 1011.8 |
| 20260506000504 | 61 | 143 | 1.0 | 7.0 | 0.00 | 0.08 | 0.02 | 76 | 1011.8 |
| 20260506000006 | 61 | 147 | 2.0 | 6.0 | 0.00 | 0.08 | 0.02 | 78 | 1011.7 |
| 20260505235504 | 61 | 148 | 4.0 | 7.0 | 0.00 | 0.08 | 0.02 | 77 | 1011.7 |
| 20260505235006 | 61 | 166 | 5.0 | 7.0 | 0.00 | 0.08 | 0.02 | 77 | 1011.8 |
| 20260505234505 | 61 | 215 | 4.0 | 6.0 | 0.00 | 0.08 | 0.02 | 77 | 1011.8 |
| 20260505232505 | 61 | 236 | 4.0 | 8.0 | 0.00 | 0.08 | 0.02 | 77 | 1011.9 |
| 20260505232005 | 61 | 171 | 4.0 | 9.0 | 0.00 | 0.08 | 0.02 | 78 | 1011.9 |
| 20260505231505 | 61 | 148 | 5.0 | 9.0 | 0.00 | 0.08 | 0.02 | 77 | 1011.8 |
| 20260505231002 | 61 | 203 | 5.0 | 9.0 | 0.00 | 0.08 | 0.02 | 77 | 1011.9 |
| 20260505230505 | 61 | 181 | 5.0 | 9.0 | 0.00 | 0.08 | 0.02 | 78 | 1012.0 |
| 20260505230003 | 61 | 207 | 5.0 | 9.0 | 0.00 | 0.08 | 0.02 | 77 | 1011.9 |
| 20260505225502 | 61 | 135 | 4.0 | 8.0 | 0.00 | 0.08 | 0.02 | 77 | 1012.0 |
| 20260505225005 | 61 | 211 | 5.0 | 10.0 | 0.00 | 0.08 | 0.02 | 77 | 1012.0 |
| 20260505224505 | 61 | 184 | 5.0 | 10.0 | 0.00 | 0.08 | 0.02 | 79 | 1012.0 |
| 20260505224006 | 61 | 198 | 6.0 | 10.0 | 0.00 | 0.08 | 0.02 | 78 | 1012.0 |
| 20260505223505 | 61 | 157 | 6.0 | 10.0 | 0.00 | 0.08 | 0.02 | 76 | 1012.0 |
| 20260505223005 | 61 | 211 | 6.0 | 11.0 | 0.00 | 0.08 | 0.02 | 79 | 1012.0 |
| 20260505222505 | 61 | 161 | 6.0 | 11.0 | 0.00 | 0.08 | 0.02 | 75 | 1012.1 |
| 20260505221504 | 61 | 173 | 7.0 | 11.0 | 0.00 | 0.08 | 0.02 | 76 | 1012.1 |
| 20260505221006 | 61 | 175 | 7.0 | 10.0 | 0.00 | 0.08 | 0.02 | 77 | 1012.1 |
| 20260505220008 | 61 | 161 | 6.0 | 11.0 | 0.00 | 0.08 | 0.02 | 76 | 1012.2 |
| 20260505215504 | 62 | 153 | 5.0 | 9.0 | 0.00 | 0.08 | 0.02 | 75 | 1012.2 |
| 20260505215006 | 62 | 165 | 5.0 | 10.0 | 0.00 | 0.08 | 0.02 | 80 | 1012.2 |
| 20260505214007 | 61 | 162 | 7.0 | 11.0 | 0.00 | 0.08 | 0.02 | 77 | 1012.3 |
| 20260505213006 | 61 | 185 | 7.0 | 11.0 | 0.00 | 0.08 | 0.02 | 79 | 1012.3 |
| 20260505212507 | 61 | 141 | 7.0 | 15.0 | 0.00 | 0.08 | 0.02 | 77 | 1012.2 |
| 20260505211503 | 61 | 198 | 8.0 | 14.0 | 0.00 | 0.08 | 0.02 | 76 | 1012.3 |
| 20260505210503 | 63 | 202 | 5.0 | 11.0 | 0.00 | 0.08 | 0.02 | 77 | 1012.4 |
| 20260505210008 | 62 | 192 | 5.0 | 10.0 | 0.00 | 0.08 | 0.02 | 77 | 1012.5 |
| 20260505205505 | 62 | 174 | 5.0 | 9.0 | 0.00 | 0.08 | 0.02 | 76 | 1012.4 |
| 20260505205003 | 62 | 222 | 6.0 | 12.0 | 0.00 | 0.08 | 0.02 | 79 | 1012.5 |
| 20260505204004 | 62 | 192 | 6.0 | 11.0 | 0.00 | 0.08 | 0.02 | 77 | 1012.5 |
| 20260505203502 | 61 | 252 | 6.0 | 11.0 | 0.00 | 0.08 | 0.02 | 78 | 1012.6 |
| 20260505202504 | 60 | 215 | 6.0 | 11.0 | 0.00 | 0.08 | 0.02 | 78 | 1012.6 |
| 20260505202006 | 60 | 163 | 5.0 | 10.0 | 0.00 | 0.08 | 0.02 | 78 | 1012.6 |
| 20260505201002 | 59 | 220 | 8.0 | 13.0 | 0.00 | 0.08 | 0.02 | 80 | 1012.8 |
| 20260505200502 | 59 | 161 | 7.0 | 13.0 | 0.00 | 0.08 | 0.02 | 79 | 1012.8 |
| 20260505195504 | 60 | 191 | 5.0 | 10.0 | 0.00 | 0.08 | 0.02 | 79 | 1012.8 |
| 20260505195012 | 60 | 181 | 5.0 | 9.0 | 0.00 | 0.08 | 0.02 | 82 | 1012.8 |
| 20260505194502 | 60 | 182 | 6.0 | 9.0 | 0.00 | 0.08 | 0.02 | 79 | 1012.8 |
| 20260505194004 | 60 | 169 | 6.0 | 11.0 | 0.00 | 0.08 | 0.02 | 80 | 1012.9 |
| 20260505193002 | 60 | 165 | 5.0 | 11.0 | 0.00 | 0.08 | 0.02 | 79 | 1012.9 |
| 20260505192502 | 60 | 189 | 5.0 | 9.0 | 0.00 | 0.08 | 0.02 | 81 | 1013.0 |
| 20260505192003 | 60 | 173 | 5.0 | 8.0 | 0.00 | 0.08 | 0.02 | 78 | 1013.0 |
| 20260505191502 | 60 | 148 | 4.0 | 9.0 | 0.00 | 0.08 | 0.02 | 77 | 1013.0 |
| 20260505191007 | 60 | 182 | 4.0 | 9.0 | 0.00 | 0.08 | 0.02 | 80 | 1013.0 |
| 20260505190505 | 60 | 179 | 3.0 | 8.0 | 0.00 | 0.08 | 0.02 | 78 | 1013.0 |
| 20260505190003 | 60 | 168 | 3.0 | 8.0 | 0.00 | 0.08 | 0.02 | 79 | 1013.0 |
| 20260505185504 | 59 | 186 | 3.0 | 9.0 | 0.00 | 0.08 | 0.02 | 83 | 1012.9 |
| 20260505185008 | 59 | 77 | 4.0 | 9.0 | 0.00 | 0.08 | 0.02 | 80 | 1013.0 |
| 20260505184506 | 59 | 130 | 4.0 | 9.0 | 0.00 | 0.08 | 0.02 | 73 | 1013.1 |
| 20260505184003 | 59 | 198 | 5.0 | 8.0 | 0.00 | 0.08 | 0.02 | 81 | 1013.1 |
| 20260505183008 | 58 | 146 | 5.0 | 10.0 | 0.00 | 0.08 | 0.02 | 82 | 1013.0 |
| 20260505182505 | 57 | 151 | 7.0 | 10.0 | 0.00 | 0.08 | 0.02 | 82 | 1013.1 |
| 20260505182007 | 57 | 164 | 6.0 | 10.0 | 0.00 | 0.08 | 0.02 | 86 | 1013.1 |
| 20260505181508 | 56 | 150 | 5.0 | 9.0 | 0.00 | 0.08 | 0.02 | 84 | 1013.1 |
| 20260505181007 | 56 | 161 | 5.0 | 8.0 | 0.00 | 0.08 | 0.02 | 85 | 1013.1 |
| 20260505180503 | 56 | 168 | 4.0 | 7.0 | 0.00 | 0.08 | 0.02 | 86 | 1013.1 |
| 20260505180010 | 56 | 138 | 3.0 | 7.0 | 0.00 | 0.08 | 0.02 | 85 | 1013.0 |
| 20260505175506 | 56 | 152 | 4.0 | 8.0 | 0.00 | 0.08 | 0.02 | 85 | 1013.1 |
| 20260505175003 | 56 | 154 | 5.0 | 8.0 | 0.00 | 0.08 | 0.02 | 85 | 1013.1 |
| 20260505174504 | 56 | 154 | 4.0 | 7.0 | 0.00 | 0.08 | 0.02 | 85 | 1013.1 |
| 20260505174003 | 56 | 159 | 3.0 | 7.0 | 0.00 | 0.08 | 0.02 | 86 | 1013.1 |
| 20260505173505 | 56 | 155 | 4.0 | 7.0 | 0.00 | 0.08 | 0.02 | 86 | 1013.0 |
| 20260505173003 | 55 | 141 | 5.0 | 8.0 | 0.00 | 0.08 | 0.02 | 86 | 1013.0 |
| 20260505172500 | 55 | 154 | 5.0 | 8.0 | 0.00 | 0.08 | 0.02 | 87 | 1013.0 |
| 20260505172007 | 55 | 153 | 4.0 | 7.0 | 0.00 | 0.08 | 0.02 | 86 | 1013.0 |
| 20260505170505 | 55 | 145 | 4.0 | 7.0 | 0.00 | 0.08 | 0.02 | 87 | 1013.0 |
| 20260505170002 | 54 | 144 | 4.0 | 6.0 | 0.00 | 0.08 | 0.02 | 88 | 1013.0 |
| 20260505165502 | 54 | 157 | 3.0 | 7.0 | 0.00 | 0.08 | 0.02 | 87 | 1013.0 |
| 20260505164507 | 54 | 149 | 3.0 | 7.0 | 0.00 | 0.08 | 0.02 | 88 | 1013.1 |
| 20260505164010 | 54 | 153 | 3.0 | 7.0 | 0.00 | 0.08 | 0.02 | 88 | 1013.2 |
| 20260505163502 | 54 | 148 | 3.0 | 5.0 | 0.00 | 0.08 | 0.02 | 90 | 1013.1 |
| 20260505163009 | 54 | 148 | 3.0 | 5.0 | 0.00 | 0.08 | 0.02 | 89 | 1013.1 |
| 20260505162505 | 53 | 148 | 3.0 | 6.0 | 0.00 | 0.08 | 0.02 | 90 | 1013.1 |
| 20260505160502 | 53 | 154 | 3.0 | 7.0 | 0.00 | 0.08 | 0.02 | 90 | 1013.1 |
| 20260505153007 | 52 | 158 | 5.0 | 7.0 | 0.00 | 0.08 | 0.02 | 93 | 1013.0 |
| 20260505152459 | 52 | 161 | 4.0 | 7.0 | 0.00 | 0.08 | 0.02 | 93 | 1013.0 |
| 20260505151505 | 52 | 152 | 4.0 | 7.0 | 0.00 | 0.08 | 0.02 | 93 | 1012.9 |
| 20260505151009 | 52 | 159 | 4.0 | 7.0 | 0.00 | 0.08 | 0.02 | 93 | 1012.8 |
| 20260505150500 | 52 | 159 | 3.0 | 5.0 | 0.00 | 0.08 | 0.02 | 93 | 1012.8 |
| 20260505140504 | 51 | 157 | 2.0 | 5.0 | 0.00 | 0.08 | 0.02 | 94 | 1012.6 |
| 20260505124504 | 51 | 128 | 0.0 | 0.0 | 0.00 | 0.08 | 0.02 | 94 | 1012.1 |
| 20260505123503 | 51 | 128 | 0.0 | 0.0 | 0.00 | 0.08 | 0.02 | 95 | 1012.1 |
| 20260505123003 | 51 | 128 | 0.0 | 0.0 | 0.00 | 0.08 | 0.02 | 95 | 1012.1 |
| 20260505122500 | 51 | 128 | 0.0 | 0.0 | 0.00 | 0.08 | 0.02 | 94 | 1012.0 |
| 20260505122004 | 51 | 128 | 0.0 | 0.0 | 0.00 | 0.08 | 0.02 | 95 | 1012.1 |
| 20260505121504 | 51 | 128 | 0.0 | 0.0 | 0.00 | 0.08 | 0.02 | 95 | 1012.1 |
| 20260505120003 | 51 | 128 | 0.0 | 0.0 | 0.00 | 0.08 | 0.02 | 94 | 1012.1 |
| 20260505115500 | 51 | 128 | 1.0 | 3.0 | 0.00 | 0.08 | 0.02 | 95 | 1012.1 |
| 20260505115002 | 51 | 128 | 1.0 | 3.0 | 0.00 | 0.08 | 0.02 | 94 | 1012.1 |
| 20260505114500 | 51 | 128 | 1.0 | 2.0 | 0.00 | 0.08 | 0.02 | 94 | 1012.0 |
| 20260505114002 | 51 | 128 | 0.0 | 2.0 | 0.00 | 0.08 | 0.02 | 95 | 1012.0 |
| 20260505113002 | 51 | 128 | 0.0 | 0.0 | 0.00 | 0.08 | 0.02 | 94 | 1012.0 |
| 20260505112504 | 51 | 128 | 0.0 | 0.0 | 0.00 | 0.08 | 0.02 | 94 | 1012.0 |
| 20260505112005 | 51 | 128 | 0.0 | 0.0 | 0.00 | 0.08 | 0.02 | 94 | 1012.1 |
| 20260505111503 | 51 | 128 | 0.0 | 0.0 | 0.00 | 0.08 | 0.02 | 94 | 1012.0 |
| 20260505110500 | 51 | 128 | 0.0 | 0.0 | 0.00 | 0.08 | 0.02 | 94 | 1012.0 |
| 20260505101959 | 51 | 128 | 0.0 | 0.0 | 0.01 | 0.08 | 0.02 | 94 | 1012.0 |
| 20260505101503 | 51 | 128 | 0.0 | 0.0 | 0.01 | 0.08 | 0.02 | 94 | 1012.0 |
| 20260505101004 | 51 | 128 | 0.0 | 0.0 | 0.01 | 0.08 | 0.02 | 94 | 1012.1 |
| 20260505100500 | 51 | 128 | 0.0 | 0.0 | 0.01 | 0.08 | 0.02 | 94 | 1012.0 |
| 20260505095004 | 51 | 128 | 0.0 | 0.0 | 0.01 | 0.08 | 0.02 | 94 | 1012.0 |
| 20260505094459 | 51 | 128 | 0.0 | 0.0 | 0.01 | 0.08 | 0.02 | 94 | 1012.0 |
| 20260505094006 | 51 | 128 | 0.0 | 1.0 | 0.00 | 0.07 | 0.01 | 93 | 1012.1 |
| 20260505093502 | 51 | 127 | 1.0 | 2.0 | 0.00 | 0.07 | 0.01 | 93 | 1012.1 |
| 20260505093002 | 51 | 128 | 1.0 | 2.0 | 0.00 | 0.07 | 0.01 | 93 | 1012.1 |
| 20260505092458 | 51 | 127 | 2.0 | 3.0 | 0.00 | 0.07 | 0.01 | 93 | 1012.2 |
| 20260505092000 | 51 | 127 | 2.0 | 4.0 | 0.00 | 0.07 | 0.01 | 93 | 1012.1 |
| 20260505091502 | 51 | 127 | 1.0 | 4.0 | 0.00 | 0.07 | 0.01 | 93 | 1012.1 |
| 20260505091003 | 51 | 146 | 2.0 | 4.0 | 0.00 | 0.07 | 0.01 | 93 | 1012.1 |
| 20260505090503 | 51 | 146 | 2.0 | 5.0 | 0.00 | 0.07 | 0.01 | 93 | 1012.1 |
| 20260505090006 | 51 | 146 | 3.0 | 5.0 | 0.00 | 0.07 | 0.01 | 93 | 1012.2 |
| 20260505085502 | 51 | 171 | 2.0 | 6.0 | 0.00 | 0.07 | 0.01 | 93 | 1012.2 |
| 20260505085005 | 51 | 157 | 2.0 | 6.0 | 0.00 | 0.07 | 0.01 | 92 | 1012.3 |
| 20260505084503 | 51 | 121 | 3.0 | 6.0 | 0.00 | 0.07 | 0.01 | 93 | 1012.3 |
| 20260505083959 | 51 | 101 | 3.0 | 7.0 | 0.00 | 0.07 | 0.01 | 92 | 1012.3 |
| 20260505083502 | 51 | 96 | 3.0 | 7.0 | 0.00 | 0.07 | 0.01 | 92 | 1012.3 |
| 20260505083003 | 51 | 108 | 2.0 | 6.0 | 0.00 | 0.07 | 0.01 | 92 | 1012.4 |
| 20260505082502 | 51 | 132 | 2.0 | 4.0 | 0.01 | 0.07 | 0.01 | 92 | 1012.4 |
| 20260505082000 | 51 | 114 | 2.0 | 6.0 | 0.01 | 0.07 | 0.01 | 93 | 1012.3 |
| 20260505081504 | 51 | 97 | 2.0 | 6.0 | 0.01 | 0.07 | 0.01 | 92 | 1012.3 |
| 20260505081002 | 51 | 136 | 3.0 | 7.0 | 0.01 | 0.07 | 0.01 | 92 | 1012.4 |
| 20260505080008 | 51 | 106 | 3.0 | 7.0 | 0.01 | 0.07 | 0.01 | 92 | 1012.5 |
| 20260505075457 | 51 | 100 | 3.0 | 8.0 | 0.02 | 0.07 | 0.01 | 92 | 1012.6 |
| 20260505075002 | 51 | 142 | 3.0 | 8.0 | 0.02 | 0.07 | 0.01 | 92 | 1012.6 |
| 20260505074003 | 51 | 122 | 3.0 | 7.0 | 0.02 | 0.07 | 0.01 | 92 | 1012.6 |
| 20260505073458 | 51 | 115 | 3.0 | 7.0 | 0.02 | 0.07 | 0.01 | 92 | 1012.6 |
| 20260505072502 | 51 | 138 | 2.0 | 7.0 | 0.01 | 0.06 | 0.00 | 93 | 1012.6 |
| 20260505071007 | 51 | 100 | 2.0 | 8.0 | 0.02 | 0.06 | 0.00 | 93 | 1012.6 |
| 20260505070006 | 51 | 161 | 4.0 | 9.0 | 0.02 | 0.06 | 0.06 | 93 | 1012.6 |
| 20260505065500 | 51 | 168 | 3.0 | 10.0 | 0.01 | 0.05 | 0.05 | 92 | 1012.7 |
| 20260505064500 | 51 | 56 | 5.0 | 9.0 | 0.01 | 0.05 | 0.05 | 92 | 1012.6 |
| 20260505064001 | 51 | 150 | 5.0 | 10.0 | 0.01 | 0.05 | 0.05 | 92 | 1012.6 |
| 20260505063504 | 51 | 155 | 6.0 | 15.0 | 0.01 | 0.05 | 0.05 | 92 | 1012.5 |
| 20260505063004 | 52 | 165 | 7.0 | 15.0 | 0.01 | 0.05 | 0.05 | 92 | 1012.4 |
| 20260505062504 | 52 | 155 | 8.0 | 15.0 | 0.01 | 0.05 | 0.05 | 92 | 1012.5 |
| 20260505062002 | 52 | 175 | 8.0 | 15.0 | 0.01 | 0.05 | 0.05 | 92 | 1012.4 |
| 20260505061504 | 52 | 165 | 8.0 | 12.0 | 0.00 | 0.04 | 0.04 | 92 | 1012.5 |
| 20260505061002 | 52 | 153 | 7.0 | 16.0 | 0.00 | 0.04 | 0.04 | 91 | 1012.6 |
| 20260505060504 | 52 | 155 | 7.0 | 16.0 | 0.00 | 0.04 | 0.04 | 91 | 1012.7 |
| 20260505060008 | 52 | 103 | 7.0 | 14.0 | 0.00 | 0.04 | 0.04 | 91 | 1012.8 |
| 20260505055002 | 52 | 107 | 7.0 | 13.0 | 0.01 | 0.04 | 0.04 | 91 | 1012.7 |
| 20260505054503 | 52 | 87 | 7.0 | 13.0 | 0.01 | 0.04 | 0.04 | 91 | 1012.6 |
| 20260505054005 | 52 | 108 | 6.0 | 12.0 | 0.01 | 0.04 | 0.04 | 91 | 1012.5 |
| 20260505052007 | 52 | 113 | 6.0 | 13.0 | 0.01 | 0.04 | 0.04 | 91 | 1012.6 |
| 20260505051505 | 52 | 107 | 6.0 | 11.0 | 0.02 | 0.04 | 0.04 | 92 | 1012.5 |
| 20260505051004 | 52 | 159 | 6.0 | 11.0 | 0.02 | 0.04 | 0.04 | 91 | 1012.5 |
| 20260505050502 | 52 | 173 | 5.0 | 11.0 | 0.02 | 0.04 | 0.04 | 91 | 1012.5 |